Whiting Fld NAS, FL

7:35 PM CST on February 26, 2015 (GMT -0600)
Hurlburt | Change Station
CLOSE
Current Station
Airport
Location: Hurlburt Field,
Elevation: 39 ft
Nearby Weather Stations

Elev 39 ft 30.43 °N, 86.69 °W | Updated 37 minutes ago

Mostly Cloudy
Mostly Cloudy
42 °F
Feels Like 35 °F
N
13
Wind Variable Wind from NNE

Today
High -- | Low -- °F
--% Chance of Precip.
Yesterday
High -- | Low -- °F
Precip. -- in
6:18 AM 5:44 PM
Waxing Gibbous, 64% visible
Pressure 30.13 in
Visibility 10.0 miles
Clouds Mostly Cloudy 1900 ft
Windchill 35 °F
Dew Point 33 °F
Humidity 71%
Rainfall 0.00 in
Snow Depth Not available.
UV 0 out of 12
Pollen 7.90 out of 12
Air Quality Not available.
Flu Activity Not available.
METAR KHRT 270058Z AUTO 02011KT 10SM BKN019 06/01 A3012 RMK AO2 BKN V OVC SLP202 T00550006 $

More Conditions Fewer Conditions

Pressure 30.13 in
Visibility 10.0 miles
Clouds Mostly Cloudy 1900 ft
Windchill 35 °F
Dew Point 33 °F
Humidity 71%
Rainfall 0.00 in
Snow Depth Not available.
UV 0 out of 12
Pollen 7.90 out of 12
Air Quality Not available.
Flu Activity Not available.
METAR KHRT 270058Z AUTO 02011KT 10SM BKN019 06/01 A3012 RMK AO2 BKN V OVC SLP202 T00550006 $

More Conditions Fewer Conditions

10-Day Weather Forecast

Almanac

Astronomy

Feb. 26, 2015 Rise Set
Actual Time
Civil Twilight
Nautical Twilight
Astronomical Twilight
Moon
Length of Visible Light
Length of Day
Tomorrow will be .
, % of the Moon is Illuminated

Today's Extremes

State Highs State Lows

Community

WunderPhotos

Upload Photos

1,800,553 photos uploaded!

WunderBlogs® & News

Nearby

Air Quality

  Air Quality AQ Index Pollutant
Not available.

Snow Depth

Station Depth Elevation

Earthquake Activity

City Distance Mag. Time & Date
Minimum magnitude displayed is 2.5.

Coastal Water Temperatures

Place Temperature

Nearby Weather Stations